createdAt,value
2022-09-12T00:01:06.940Z,10.82
2022-09-12T00:04:12.830Z,10.75
2022-09-12T00:07:16.783Z,10.67
2022-09-12T00:10:21.131Z,10.64
2022-09-12T00:13:26.107Z,10.62
2022-09-12T00:16:32.679Z,10.61
2022-09-12T00:19:36.327Z,10.61
2022-09-12T00:22:39.943Z,10.58
2022-09-12T00:25:45.030Z,10.52
2022-09-12T00:28:50.658Z,10.54
2022-09-12T00:31:54.363Z,10.53
2022-09-12T00:34:57.975Z,10.53
2022-09-12T00:38:01.595Z,10.49
2022-09-12T00:41:05.424Z,10.46
2022-09-12T00:44:48.277Z,10.42
2022-09-12T00:47:51.988Z,10.39
2022-09-12T00:50:55.779Z,10.29
2022-09-12T00:54:04.039Z,10.29
2022-09-12T00:57:11.784Z,10.26
2022-09-12T01:00:20.898Z,10.20
2022-09-12T01:03:26.465Z,10.16
2022-09-12T01:06:36.695Z,10.01
2022-09-12T01:09:43.220Z,9.95
2022-09-12T01:12:47.615Z,9.86
2022-09-12T01:15:54.336Z,9.83
2022-09-12T01:19:26.658Z,9.77
2022-09-12T01:23:02.550Z,9.61
2022-09-12T01:26:27.672Z,9.52
2022-09-12T01:30:07.188Z,9.43
2022-09-12T01:33:41.142Z,9.42
2022-09-12T01:37:00.480Z,9.44
2022-09-12T01:40:16.677Z,9.43
2022-09-12T01:43:31.918Z,9.46
2022-09-12T01:46:46.777Z,9.40
2022-09-12T01:50:01.606Z,9.47
2022-09-12T01:53:14.786Z,9.43
2022-09-12T01:56:25.043Z,9.42
2022-09-12T01:59:36.085Z,9.43
2022-09-12T02:02:50.728Z,9.46
2022-09-12T02:06:04.305Z,9.46
2022-09-12T02:09:16.119Z,9.47
2022-09-12T02:12:26.928Z,9.51
2022-09-12T02:15:38.999Z,9.51
2022-09-12T02:18:51.843Z,9.49
2022-09-12T02:22:01.377Z,9.48
2022-09-12T02:25:10.614Z,9.46
2022-09-12T02:28:22.796Z,9.50
2022-09-12T02:31:35.023Z,9.43
2022-09-12T02:34:49.822Z,9.49
2022-09-12T02:38:03.584Z,9.52
2022-09-12T02:41:07.445Z,9.54
2022-09-12T02:44:11.403Z,9.45
2022-09-12T02:47:26.450Z,9.35
2022-09-12T02:50:30.435Z,9.34
2022-09-12T02:53:37.003Z,9.39
2022-09-12T02:56:45.811Z,9.35
2022-09-12T02:59:54.504Z,9.23
2022-09-12T03:03:40.180Z,9.19
2022-09-12T03:07:02.472Z,9.14
2022-09-12T03:10:24.163Z,9.12
2022-09-12T03:13:44.837Z,9.08
2022-09-12T03:17:01.717Z,8.96
2022-09-12T03:20:12.846Z,8.83
2022-09-12T03:23:31.163Z,8.86
2022-09-12T03:26:44.669Z,8.83
2022-09-12T03:29:49.899Z,8.81
2022-09-12T03:32:56.063Z,8.70
2022-09-12T03:35:59.747Z,8.65
2022-09-12T03:39:03.282Z,8.64
2022-09-12T03:42:08.350Z,8.64
2022-09-12T03:45:13.182Z,8.58
2022-09-12T03:48:16.930Z,8.59
2022-09-12T03:51:20.915Z,8.59
2022-09-12T03:54:24.659Z,8.56
2022-09-12T03:57:29.813Z,8.59
2022-09-12T04:00:33.493Z,8.51
2022-09-12T04:03:37.075Z,8.50
2022-09-12T04:06:41.686Z,8.47
2022-09-12T04:09:45.566Z,8.46
2022-09-12T04:12:50.599Z,8.53
2022-09-12T04:16:01.586Z,8.53
2022-09-12T04:19:05.343Z,8.52
2022-09-12T04:22:08.964Z,8.47
2022-09-12T04:25:13.430Z,8.47
2022-09-12T04:28:18.379Z,8.43
2022-09-12T04:31:23.585Z,8.39
2022-09-12T04:34:31.784Z,8.46
2022-09-12T04:37:35.587Z,8.39
2022-09-12T04:40:39.362Z,8.31
2022-09-12T04:43:46.565Z,8.31
2022-09-12T04:46:50.622Z,8.36
2022-09-12T04:49:54.232Z,8.33
2022-09-12T04:52:58.150Z,8.33
2022-09-12T04:56:04.714Z,8.30
2022-09-12T04:59:11.988Z,8.31
2022-09-12T05:02:16.403Z,8.30
2022-09-12T05:05:20.126Z,8.26
2022-09-12T05:08:23.757Z,8.28
2022-09-12T05:11:53.021Z,8.27
2022-09-12T05:14:55.931Z,8.33
2022-09-12T05:17:59.517Z,8.44
2022-09-12T05:21:05.308Z,8.36
2022-09-12T05:24:09.011Z,8.41
2022-09-12T05:27:12.551Z,8.46
2022-09-12T05:30:17.666Z,8.48
2022-09-12T05:33:24.994Z,8.49
2022-09-12T05:36:32.442Z,8.55
2022-09-12T05:39:35.984Z,8.62
2022-09-12T05:42:39.568Z,8.74
2022-09-12T05:45:45.200Z,8.83
2022-09-12T05:48:55.628Z,8.92
2022-09-12T05:51:59.828Z,8.92
2022-09-12T05:55:03.459Z,8.98
2022-09-12T05:58:07.473Z,9.07
2022-09-12T06:01:16.016Z,9.14
2022-09-12T06:04:19.754Z,9.18
2022-09-12T06:07:23.390Z,9.29
2022-09-12T06:10:27.091Z,9.30
2022-09-12T06:13:33.135Z,9.29
2022-09-12T06:16:38.698Z,9.23
2022-09-12T06:19:42.363Z,9.41
2022-09-12T06:22:45.963Z,9.43
2022-09-12T06:25:50.640Z,9.73
2022-09-12T06:29:10.303Z,9.75
2022-09-12T06:32:15.502Z,9.85
2022-09-12T06:35:19.206Z,9.94
2022-09-12T06:38:22.854Z,10.13
2022-09-12T06:41:27.186Z,10.27
2022-09-12T06:44:31.681Z,10.40
2022-09-12T06:47:37.258Z,10.58
2022-09-12T06:50:40.775Z,10.78
2022-09-12T06:53:46.093Z,11.00
2022-09-12T06:56:49.964Z,11.30
2022-09-12T06:59:53.528Z,11.53
2022-09-12T07:02:58.639Z,11.88
2022-09-12T07:06:06.340Z,12.00
2022-09-12T07:09:13.821Z,12.29
2022-09-12T07:12:17.471Z,12.33
2022-09-12T07:15:31.787Z,12.46
2022-09-12T07:18:39.167Z,12.79
2022-09-12T07:21:43.159Z,13.02
2022-09-12T07:24:47.755Z,13.07
2022-09-12T07:27:51.420Z,13.16
2022-09-12T07:30:56.071Z,13.48
2022-09-12T07:34:01.087Z,13.72
2022-09-12T07:37:05.047Z,13.87
2022-09-12T07:40:10.480Z,14.06
2022-09-12T07:43:14.303Z,14.48
2022-09-12T07:46:18.127Z,14.61
2022-09-12T07:49:23.130Z,14.92
2022-09-12T07:52:26.775Z,15.22
2022-09-12T07:55:30.886Z,15.77
2022-09-12T07:58:36.928Z,16.08
2022-09-12T08:01:41.649Z,16.26
2022-09-12T08:04:48.387Z,16.50
2022-09-12T08:07:55.799Z,16.92
2022-09-12T08:11:02.627Z,16.97
2022-09-12T08:14:06.730Z,16.97
2022-09-12T08:17:10.727Z,17.06
2022-09-12T08:20:15.935Z,17.08
2022-09-12T08:23:21.871Z,17.29
2022-09-12T08:26:25.889Z,17.46
2022-09-12T08:29:29.607Z,17.50
2022-09-12T08:32:33.187Z,17.34
2022-09-12T08:35:38.193Z,17.65
2022-09-12T08:38:44.324Z,17.71
2022-09-12T08:41:51.350Z,17.84
2022-09-12T08:45:18.032Z,17.94
2022-09-12T08:48:21.687Z,17.70
2022-09-12T08:51:27.166Z,17.73
2022-09-12T08:54:33.613Z,17.77
2022-09-12T08:57:37.266Z,17.98
2022-09-12T09:00:52.290Z,18.09
2022-09-12T09:04:20.649Z,18.01
2022-09-12T09:07:55.681Z,18.16
2022-09-12T09:11:12.792Z,18.44
2022-09-12T09:14:50.830Z,18.46
2022-09-12T09:18:00.486Z,18.63
2022-09-12T09:21:13.603Z,18.90
2022-09-12T09:24:26.064Z,18.77
2022-09-12T09:27:40.760Z,18.94
2022-09-12T09:30:46.037Z,19.03
2022-09-12T09:33:54.172Z,19.25
2022-09-12T09:37:09.100Z,19.19
2022-09-12T09:40:25.604Z,19.42
2022-09-12T09:43:29.576Z,19.26
2022-09-12T09:46:34.495Z,19.34
2022-09-12T09:49:38.232Z,19.52
2022-09-12T09:52:42.317Z,19.49
2022-09-12T09:55:47.907Z,19.46
2022-09-12T09:58:51.651Z,19.27
2022-09-12T10:02:02.234Z,19.31
2022-09-12T10:05:06.424Z,19.46
2022-09-12T10:08:11.385Z,19.52
2022-09-12T10:11:26.945Z,19.42
2022-09-12T10:14:41.148Z,19.36
2022-09-12T10:17:47.932Z,19.39
2022-09-12T10:20:51.767Z,19.44
2022-09-12T10:24:05.310Z,19.27
2022-09-12T10:27:18.902Z,19.46
2022-09-12T10:30:25.242Z,19.65
2022-09-12T10:33:31.679Z,19.70
2022-09-12T10:36:41.058Z,19.53
2022-09-12T10:39:54.591Z,19.57
2022-09-12T10:43:19.185Z,19.84
2022-09-12T10:46:29.631Z,19.79
2022-09-12T10:49:38.708Z,19.97
2022-09-12T10:52:42.373Z,19.97
2022-09-12T10:56:09.615Z,19.86
2022-09-12T10:59:29.072Z,19.77
2022-09-12T11:02:50.804Z,19.85
2022-09-12T11:06:00.060Z,20.07
2022-09-12T11:09:16.087Z,20.19
2022-09-12T11:12:34.015Z,20.26
2022-09-12T11:15:57.929Z,20.42
2022-09-12T11:19:23.206Z,20.40
2022-09-12T11:22:45.642Z,20.44
2022-09-12T11:26:01.177Z,20.58
2022-09-12T11:29:22.183Z,20.45
2022-09-12T11:33:08.255Z,20.77
2022-09-12T11:36:28.998Z,20.71
2022-09-12T11:39:40.522Z,21.15
2022-09-12T11:42:47.575Z,21.02
2022-09-12T11:45:52.990Z,20.93
2022-09-12T11:49:05.584Z,20.98
2022-09-12T11:52:18.034Z,21.00
2022-09-12T11:55:29.849Z,20.97
2022-09-12T11:58:34.016Z,20.75
2022-09-12T12:01:48.574Z,20.86
2022-09-12T12:05:17.209Z,21.07
2022-09-12T12:08:23.760Z,21.35
2022-09-12T12:11:33.950Z,21.15
2022-09-12T12:14:44.400Z,21.23
2022-09-12T12:18:02.503Z,21.21
2022-09-12T12:21:37.378Z,21.34
2022-09-12T12:25:11.148Z,21.20
2022-09-12T12:29:01.666Z,21.64
2022-09-12T12:32:26.206Z,21.55
2022-09-12T12:35:42.653Z,21.68
2022-09-12T12:38:47.776Z,21.94
2022-09-12T12:41:51.434Z,22.28
2022-09-12T12:44:54.997Z,22.25
2022-09-12T12:48:10.188Z,22.60
2022-09-12T12:52:02.545Z,22.71
2022-09-12T12:55:17.017Z,22.60
2022-09-12T12:58:34.646Z,22.34
2022-09-12T13:01:41.161Z,21.85
2022-09-12T13:04:47.056Z,21.79
2022-09-12T13:07:59.223Z,21.89
2022-09-12T13:11:10.971Z,21.84
2022-09-12T13:14:38.773Z,21.81
2022-09-12T13:17:44.882Z,22.15
2022-09-12T13:20:54.972Z,22.10
2022-09-12T13:24:03.974Z,22.17
2022-09-12T13:27:21.150Z,22.55
2022-09-12T13:30:24.731Z,22.65
2022-09-12T13:33:37.679Z,22.44
2022-09-12T13:37:25.410Z,22.15
2022-09-12T13:40:47.043Z,21.92
2022-09-12T13:43:52.708Z,21.97
2022-09-12T13:47:01.631Z,21.87
2022-09-12T13:50:08.683Z,21.98
2022-09-12T13:53:19.227Z,22.09
2022-09-12T13:56:23.551Z,22.15
2022-09-12T13:59:28.771Z,22.24
2022-09-12T14:02:37.615Z,22.33
2022-09-12T14:05:45.102Z,22.50
2022-09-12T14:08:49.115Z,22.41
2022-09-12T14:11:53.830Z,22.41
2022-09-12T14:14:59.299Z,22.40
2022-09-12T14:18:05.703Z,22.49
2022-09-12T14:21:13.308Z,22.30
2022-09-12T14:24:17.110Z,22.43
2022-09-12T14:27:25.858Z,22.63
2022-09-12T14:30:34.090Z,22.50
2022-09-12T14:33:50.260Z,22.25
2022-09-12T14:36:57.277Z,22.31
2022-09-12T14:40:01.486Z,22.23
2022-09-12T14:43:05.270Z,22.22
2022-09-12T14:46:20.585Z,22.16
2022-09-12T14:49:32.595Z,22.11
2022-09-12T14:52:36.476Z,22.20
2022-09-12T14:55:47.441Z,22.23
2022-09-12T14:58:51.822Z,22.29
2022-09-12T15:02:27.302Z,22.16
2022-09-12T15:05:31.367Z,22.20
2022-09-12T15:08:35.406Z,22.19
2022-09-12T15:11:38.951Z,22.12
2022-09-12T15:14:42.601Z,21.90
2022-09-12T15:17:48.086Z,21.87
2022-09-12T15:20:55.152Z,21.85
2022-09-12T15:23:58.751Z,21.68
2022-09-12T15:27:02.340Z,21.75
2022-09-12T15:30:07.272Z,21.70
2022-09-12T15:33:13.072Z,21.60
2022-09-12T15:36:20.118Z,21.69
2022-09-12T15:39:23.733Z,21.63
2022-09-12T15:42:31.438Z,21.57
2022-09-12T15:45:45.375Z,21.35
2022-09-12T15:48:51.192Z,21.39
2022-09-12T15:51:54.785Z,21.33
2022-09-12T15:54:58.492Z,21.25
2022-09-12T15:58:06.886Z,21.04
2022-09-12T16:01:13.260Z,20.97
2022-09-12T16:04:25.355Z,21.00
2022-09-12T16:07:29.957Z,20.95
2022-09-12T16:10:33.595Z,20.98
2022-09-12T16:13:37.187Z,20.96
2022-09-12T16:16:40.931Z,20.97
2022-09-12T16:19:45.846Z,20.94
2022-09-12T16:22:49.961Z,20.93
2022-09-12T16:26:00.443Z,20.84
2022-09-12T16:29:04.251Z,20.81
2022-09-12T16:32:08.116Z,20.85
2022-09-12T16:35:13.203Z,20.78
2022-09-12T16:38:17.085Z,20.93
2022-09-12T16:41:24.744Z,21.11
2022-09-12T16:44:28.342Z,21.02
2022-09-12T16:47:32.538Z,21.02
2022-09-12T16:50:37.545Z,20.94
2022-09-12T16:53:41.580Z,20.93
2022-09-12T16:56:46.747Z,20.80
2022-09-12T16:59:50.786Z,20.73
2022-09-12T17:02:54.355Z,20.57
2022-09-12T17:06:04.976Z,20.53
2022-09-12T17:09:10.641Z,20.30
2022-09-12T17:12:14.273Z,20.18
2022-09-12T17:15:38.705Z,20.00
2022-09-12T17:18:42.946Z,19.82
2022-09-12T17:21:48.902Z,19.80
2022-09-12T17:24:52.437Z,19.66
2022-09-12T17:27:56.021Z,19.48
2022-09-12T17:31:02.652Z,19.38
2022-09-12T17:34:06.210Z,19.25
2022-09-12T17:37:11.188Z,19.17
2022-09-12T17:40:14.773Z,18.97
2022-09-12T17:43:44.002Z,18.89
2022-09-12T17:46:47.765Z,18.80
2022-09-12T17:49:52.063Z,18.72
2022-09-12T17:52:57.739Z,18.63
2022-09-12T17:56:04.523Z,18.52
2022-09-12T17:59:11.912Z,18.41
2022-09-12T18:02:16.121Z,18.33
2022-09-12T18:05:19.779Z,18.25
2022-09-12T18:08:26.296Z,18.20
2022-09-12T18:11:30.100Z,18.10
2022-09-12T18:14:33.727Z,18.03
2022-09-12T18:17:37.284Z,17.96
2022-09-12T18:20:40.991Z,17.92
2022-09-12T18:23:46.037Z,17.88
2022-09-12T18:26:49.957Z,17.81
2022-09-12T18:30:17.236Z,17.73
2022-09-12T18:33:20.766Z,17.60
2022-09-12T18:36:26.962Z,17.52
2022-09-12T18:39:32.031Z,17.43
2022-09-12T18:42:35.632Z,17.34
2022-09-12T18:45:39.294Z,17.29
2022-09-12T18:48:46.946Z,17.25
2022-09-12T18:51:50.574Z,17.20
2022-09-12T18:54:55.538Z,17.13
2022-09-12T18:57:59.106Z,17.06
2022-09-12T19:01:11.322Z,16.98
2022-09-12T19:04:16.523Z,16.88
2022-09-12T19:07:20.163Z,16.80
2022-09-12T19:10:25.691Z,16.74
2022-09-12T19:13:29.461Z,16.62
2022-09-12T19:16:33.695Z,16.61
2022-09-12T19:19:40.483Z,16.52
2022-09-12T19:22:44.347Z,16.45
2022-09-12T19:25:58.910Z,16.43
2022-09-12T19:29:03.072Z,16.38
2022-09-12T19:32:06.871Z,16.37
2022-09-12T19:35:12.858Z,16.32
2022-09-12T19:38:17.280Z,16.24
2022-09-12T19:41:22.372Z,16.24
2022-09-12T19:44:27.627Z,16.17
2022-09-12T19:47:31.322Z,16.10
2022-09-12T19:50:34.877Z,16.07
2022-09-12T19:53:38.509Z,16.04
2022-09-12T19:56:43.833Z,15.98
2022-09-12T19:59:48.085Z,15.94
2022-09-12T20:02:52.805Z,15.89
2022-09-12T20:06:20.476Z,15.84
2022-09-12T20:09:24.027Z,15.78
2022-09-12T20:12:29.164Z,15.74
2022-09-12T20:15:45.392Z,15.70
2022-09-12T20:18:49.824Z,15.67
2022-09-12T20:21:53.591Z,15.65
2022-09-12T20:24:57.414Z,15.60
2022-09-12T20:28:03.157Z,15.55
2022-09-12T20:31:12.400Z,15.50
2022-09-12T20:34:18.968Z,15.47
2022-09-12T20:37:22.839Z,15.43
2022-09-12T20:40:26.524Z,15.38
2022-09-12T20:43:31.697Z,15.38
2022-09-12T20:46:35.574Z,15.36
2022-09-12T20:49:39.320Z,15.40
2022-09-12T20:52:42.966Z,15.43
2022-09-12T20:55:51.648Z,15.48
2022-09-12T20:58:57.414Z,15.46
2022-09-12T21:02:01.295Z,15.45
2022-09-12T21:05:05.521Z,15.42
2022-09-12T21:08:09.194Z,15.44
2022-09-12T21:11:13.103Z,15.37
2022-09-12T21:14:18.088Z,15.32
2022-09-12T21:17:21.783Z,15.41
2022-09-12T21:20:25.367Z,15.35
2022-09-12T21:23:31.014Z,15.38
2022-09-12T21:26:34.729Z,15.37
2022-09-12T21:29:39.681Z,15.35
2022-09-12T21:32:43.319Z,15.34
2022-09-12T21:35:47.121Z,15.36
2022-09-12T21:38:50.680Z,15.41
2022-09-12T21:41:54.368Z,15.50
2022-09-12T21:44:59.439Z,15.46
2022-09-12T21:48:03.875Z,15.45
2022-09-12T21:51:08.186Z,15.46
2022-09-12T21:54:11.870Z,15.52
2022-09-12T21:57:15.503Z,15.50
2022-09-12T22:00:20.547Z,15.47
2022-09-12T22:03:24.341Z,15.49
2022-09-12T22:06:28.082Z,15.51
2022-09-12T22:09:31.625Z,15.50
2022-09-12T22:12:35.121Z,15.46
2022-09-12T22:15:41.220Z,15.51
2022-09-12T22:18:46.596Z,15.49
2022-09-12T22:22:07.288Z,15.53
2022-09-12T22:25:11.950Z,15.51
2022-09-12T22:28:16.041Z,15.57
2022-09-12T22:31:21.657Z,15.58
2022-09-12T22:34:25.731Z,15.56
2022-09-12T22:37:29.264Z,15.57
2022-09-12T22:40:33.319Z,15.63
2022-09-12T22:43:37.584Z,15.65
2022-09-12T22:46:42.609Z,15.69
2022-09-12T22:49:47.723Z,15.81
2022-09-12T22:52:55.396Z,15.82
2022-09-12T22:55:59.127Z,15.71
2022-09-12T22:59:02.877Z,15.74
2022-09-12T23:02:08.507Z,15.76
2022-09-12T23:05:12.415Z,15.70
2022-09-12T23:08:16.931Z,15.73
2022-09-12T23:11:22.260Z,15.78
2022-09-12T23:14:25.924Z,15.78
2022-09-12T23:17:30.955Z,15.84
2022-09-12T23:20:34.510Z,15.81
2022-09-12T23:23:38.995Z,15.83
2022-09-12T23:26:42.939Z,15.78
2022-09-12T23:29:46.598Z,15.78
2022-09-12T23:32:51.792Z,15.74
2022-09-12T23:36:00.315Z,15.81
2022-09-12T23:39:04.290Z,15.88
2022-09-12T23:42:08.113Z,15.84
2022-09-12T23:45:12.594Z,15.78
2022-09-12T23:48:18.573Z,15.77
2022-09-12T23:51:22.838Z,15.81
2022-09-12T23:54:26.558Z,15.88
2022-09-12T23:57:30.122Z,15.93
